sensor_id;sensor_type;location;lat;lon;timestamp;P1;durP1;ratioP1;P2;durP2;ratioP2
12846;SDS011;6492;48.128;8.320;2024-03-17T00:00:36;3.10;;;2.70;;
12846;SDS011;6492;48.128;8.320;2024-03-17T00:04:41;5.63;;;4.67;;
12846;SDS011;6492;48.128;8.320;2024-03-17T00:08:43;6.93;;;4.20;;
12846;SDS011;6492;48.128;8.320;2024-03-17T00:12:44;4.53;;;3.90;;
12846;SDS011;6492;48.128;8.320;2024-03-17T00:16:46;7.17;;;4.90;;
12846;SDS011;6492;48.128;8.320;2024-03-17T00:20:55;4.93;;;4.20;;
12846;SDS011;6492;48.128;8.320;2024-03-17T00:24:57;4.73;;;3.93;;
12846;SDS011;6492;48.128;8.320;2024-03-17T00:28:58;6.07;;;4.23;;
12846;SDS011;6492;48.128;8.320;2024-03-17T00:33:00;4.60;;;3.77;;
12846;SDS011;6492;48.128;8.320;2024-03-17T00:37:03;4.87;;;3.63;;
12846;SDS011;6492;48.128;8.320;2024-03-17T00:41:05;4.47;;;3.90;;
12846;SDS011;6492;48.128;8.320;2024-03-17T00:45:07;4.40;;;3.70;;
12846;SDS011;6492;48.128;8.320;2024-03-17T00:49:10;3.73;;;3.33;;
12846;SDS011;6492;48.128;8.320;2024-03-17T00:53:13;3.23;;;2.90;;
12846;SDS011;6492;48.128;8.320;2024-03-17T00:57:15;3.13;;;2.83;;
12846;SDS011;6492;48.128;8.320;2024-03-17T01:01:17;3.47;;;2.93;;
12846;SDS011;6492;48.128;8.320;2024-03-17T01:05:19;2.83;;;2.63;;
12846;SDS011;6492;48.128;8.320;2024-03-17T01:09:25;5.67;;;3.83;;
12846;SDS011;6492;48.128;8.320;2024-03-17T01:13:27;3.50;;;3.20;;
12846;SDS011;6492;48.128;8.320;2024-03-17T01:17:28;4.50;;;2.87;;
12846;SDS011;6492;48.128;8.320;2024-03-17T01:21:30;2.70;;;2.50;;
12846;SDS011;6492;48.128;8.320;2024-03-17T01:25:34;2.57;;;2.20;;
12846;SDS011;6492;48.128;8.320;2024-03-17T01:29:37;2.80;;;2.60;;
12846;SDS011;6492;48.128;8.320;2024-03-17T01:33:39;2.47;;;2.20;;
12846;SDS011;6492;48.128;8.320;2024-03-17T01:37:41;3.83;;;2.83;;
12846;SDS011;6492;48.128;8.320;2024-03-17T01:41:45;2.87;;;2.50;;
12846;SDS011;6492;48.128;8.320;2024-03-17T01:45:46;2.83;;;2.60;;
12846;SDS011;6492;48.128;8.320;2024-03-17T01:49:48;3.43;;;3.00;;
12846;SDS011;6492;48.128;8.320;2024-03-17T01:53:50;3.70;;;3.13;;
12846;SDS011;6492;48.128;8.320;2024-03-17T01:57:54;3.60;;;3.30;;
12846;SDS011;6492;48.128;8.320;2024-03-17T02:01:57;3.30;;;3.00;;
12846;SDS011;6492;48.128;8.320;2024-03-17T02:05:58;3.30;;;2.93;;
12846;SDS011;6492;48.128;8.320;2024-03-17T02:10:00;3.70;;;3.30;;
12846;SDS011;6492;48.128;8.320;2024-03-17T02:14:04;5.23;;;3.50;;
12846;SDS011;6492;48.128;8.320;2024-03-17T02:18:07;3.27;;;2.97;;
12846;SDS011;6492;48.128;8.320;2024-03-17T02:22:12;3.33;;;3.00;;
12846;SDS011;6492;48.128;8.320;2024-03-17T02:26:15;3.17;;;2.80;;
12846;SDS011;6492;48.128;8.320;2024-03-17T02:30:17;4.20;;;3.17;;
12846;SDS011;6492;48.128;8.320;2024-03-17T02:34:25;3.77;;;3.43;;
12846;SDS011;6492;48.128;8.320;2024-03-17T02:38:28;4.57;;;3.10;;
12846;SDS011;6492;48.128;8.320;2024-03-17T02:42:49;4.93;;;3.53;;
12846;SDS011;6492;48.128;8.320;2024-03-17T02:46:51;4.00;;;3.07;;
12846;SDS011;6492;48.128;8.320;2024-03-17T02:50:53;3.00;;;2.70;;
12846;SDS011;6492;48.128;8.320;2024-03-17T02:54:57;5.90;;;3.23;;
12846;SDS011;6492;48.128;8.320;2024-03-17T02:58:59;5.00;;;2.57;;
12846;SDS011;6492;48.128;8.320;2024-03-17T03:03:01;4.80;;;2.60;;
12846;SDS011;6492;48.128;8.320;2024-03-17T03:07:03;3.33;;;2.63;;
12846;SDS011;6492;48.128;8.320;2024-03-17T03:11:07;4.17;;;2.80;;
12846;SDS011;6492;48.128;8.320;2024-03-17T03:15:11;3.37;;;2.63;;
12846;SDS011;6492;48.128;8.320;2024-03-17T03:19:12;6.70;;;2.77;;
12846;SDS011;6492;48.128;8.320;2024-03-17T03:23:14;4.47;;;2.57;;
12846;SDS011;6492;48.128;8.320;2024-03-17T03:27:17;3.83;;;2.27;;
12846;SDS011;6492;48.128;8.320;2024-03-17T03:31:19;3.67;;;2.30;;
12846;SDS011;6492;48.128;8.320;2024-03-17T03:35:21;5.07;;;2.87;;
12846;SDS011;6492;48.128;8.320;2024-03-17T03:39:23;5.90;;;2.90;;
12846;SDS011;6492;48.128;8.320;2024-03-17T03:43:32;3.60;;;2.43;;
12846;SDS011;6492;48.128;8.320;2024-03-17T03:47:33;2.50;;;2.30;;
12846;SDS011;6492;48.128;8.320;2024-03-17T03:51:35;4.87;;;2.30;;
12846;SDS011;6492;48.128;8.320;2024-03-17T03:55:37;4.43;;;2.47;;
12846;SDS011;6492;48.128;8.320;2024-03-17T03:59:40;4.03;;;2.43;;
12846;SDS011;6492;48.128;8.320;2024-03-17T04:03:42;3.30;;;2.20;;
12846;SDS011;6492;48.128;8.320;2024-03-17T04:07:45;3.87;;;2.27;;
12846;SDS011;6492;48.128;8.320;2024-03-17T04:11:48;2.77;;;2.43;;
12846;SDS011;6492;48.128;8.320;2024-03-17T04:15:51;4.27;;;2.60;;
12846;SDS011;6492;48.128;8.320;2024-03-17T04:19:56;3.57;;;2.40;;
12846;SDS011;6492;48.128;8.320;2024-03-17T04:23:58;3.13;;;2.33;;
12846;SDS011;6492;48.128;8.320;2024-03-17T04:28:00;4.80;;;2.10;;
12846;SDS011;6492;48.128;8.320;2024-03-17T04:32:03;3.00;;;2.20;;
12846;SDS011;6492;48.128;8.320;2024-03-17T04:36:06;3.07;;;2.07;;
12846;SDS011;6492;48.128;8.320;2024-03-17T04:40:09;7.17;;;3.13;;
12846;SDS011;6492;48.128;8.320;2024-03-17T04:44:11;6.23;;;2.40;;
12846;SDS011;6492;48.128;8.320;2024-03-17T04:48:14;3.40;;;2.00;;
12846;SDS011;6492;48.128;8.320;2024-03-17T04:52:16;2.70;;;2.00;;
12846;SDS011;6492;48.128;8.320;2024-03-17T04:56:18;6.63;;;2.30;;
12846;SDS011;6492;48.128;8.320;2024-03-17T05:00:19;3.27;;;2.07;;
12846;SDS011;6492;48.128;8.320;2024-03-17T05:04:23;9.13;;;2.23;;
12846;SDS011;6492;48.128;8.320;2024-03-17T05:08:24;5.57;;;2.50;;
12846;SDS011;6492;48.128;8.320;2024-03-17T05:12:26;3.33;;;2.20;;
12846;SDS011;6492;48.128;8.320;2024-03-17T05:16:28;4.63;;;2.20;;
12846;SDS011;6492;48.128;8.320;2024-03-17T05:20:31;4.63;;;1.77;;
12846;SDS011;6492;48.128;8.320;2024-03-17T05:24:33;3.53;;;1.57;;
12846;SDS011;6492;48.128;8.320;2024-03-17T05:28:35;3.50;;;2.00;;
12846;SDS011;6492;48.128;8.320;2024-03-17T05:32:37;2.40;;;1.70;;
12846;SDS011;6492;48.128;8.320;2024-03-17T05:36:41;6.70;;;4.20;;
12846;SDS011;6492;48.128;8.320;2024-03-17T05:40:42;6.70;;;3.33;;
12846;SDS011;6492;48.128;8.320;2024-03-17T05:44:44;2.37;;;2.00;;
12846;SDS011;6492;48.128;8.320;2024-03-17T05:48:50;1.80;;;1.60;;
12846;SDS011;6492;48.128;8.320;2024-03-17T05:52:54;7.07;;;3.07;;
12846;SDS011;6492;48.128;8.320;2024-03-17T05:56:55;6.87;;;5.00;;
12846;SDS011;6492;48.128;8.320;2024-03-17T06:00:57;7.27;;;4.43;;
12846;SDS011;6492;48.128;8.320;2024-03-17T06:04:59;6.37;;;4.10;;
12846;SDS011;6492;48.128;8.320;2024-03-17T06:09:05;9.07;;;3.87;;
12846;SDS011;6492;48.128;8.320;2024-03-17T06:13:09;3.00;;;2.67;;
12846;SDS011;6492;48.128;8.320;2024-03-17T06:17:13;3.03;;;2.17;;
12846;SDS011;6492;48.128;8.320;2024-03-17T06:21:14;2.00;;;1.80;;
12846;SDS011;6492;48.128;8.320;2024-03-17T06:25:18;2.00;;;1.67;;
12846;SDS011;6492;48.128;8.320;2024-03-17T06:29:19;3.33;;;2.30;;
12846;SDS011;6492;48.128;8.320;2024-03-17T06:33:21;5.30;;;3.60;;
12846;SDS011;6492;48.128;8.320;2024-03-17T06:37:23;4.70;;;2.83;;
12846;SDS011;6492;48.128;8.320;2024-03-17T06:41:26;6.87;;;3.60;;
12846;SDS011;6492;48.128;8.320;2024-03-17T06:45:33;2.83;;;2.60;;
12846;SDS011;6492;48.128;8.320;2024-03-17T06:49:35;4.63;;;3.17;;
12846;SDS011;6492;48.128;8.320;2024-03-17T06:53:37;5.87;;;2.80;;
12846;SDS011;6492;48.128;8.320;2024-03-17T06:57:42;3.80;;;3.50;;
12846;SDS011;6492;48.128;8.320;2024-03-17T07:01:44;3.73;;;3.20;;
12846;SDS011;6492;48.128;8.320;2024-03-17T07:05:50;3.60;;;2.60;;
12846;SDS011;6492;48.128;8.320;2024-03-17T07:09:53;6.23;;;3.70;;
12846;SDS011;6492;48.128;8.320;2024-03-17T07:13:56;3.77;;;2.93;;
12846;SDS011;6492;48.128;8.320;2024-03-17T07:17:58;2.87;;;2.47;;
12846;SDS011;6492;48.128;8.320;2024-03-17T07:22:00;3.03;;;2.53;;
12846;SDS011;6492;48.128;8.320;2024-03-17T07:26:02;4.47;;;3.37;;
12846;SDS011;6492;48.128;8.320;2024-03-17T07:30:07;3.30;;;2.97;;
12846;SDS011;6492;48.128;8.320;2024-03-17T07:34:10;6.33;;;4.30;;
12846;SDS011;6492;48.128;8.320;2024-03-17T07:38:12;5.20;;;2.43;;
12846;SDS011;6492;48.128;8.320;2024-03-17T07:42:14;4.40;;;2.50;;
12846;SDS011;6492;48.128;8.320;2024-03-17T07:46:17;4.77;;;2.60;;
12846;SDS011;6492;48.128;8.320;2024-03-17T07:50:19;4.93;;;4.20;;
12846;SDS011;6492;48.128;8.320;2024-03-17T07:54:21;5.90;;;3.03;;
12846;SDS011;6492;48.128;8.320;2024-03-17T07:58:23;5.07;;;3.10;;
12846;SDS011;6492;48.128;8.320;2024-03-17T08:02:26;3.53;;;2.50;;
12846;SDS011;6492;48.128;8.320;2024-03-17T08:06:29;4.37;;;1.90;;
12846;SDS011;6492;48.128;8.320;2024-03-17T08:10:31;5.10;;;1.97;;
12846;SDS011;6492;48.128;8.320;2024-03-17T08:14:32;4.73;;;3.00;;
12846;SDS011;6492;48.128;8.320;2024-03-17T08:18:36;8.17;;;4.90;;
12846;SDS011;6492;48.128;8.320;2024-03-17T08:22:39;9.77;;;3.73;;
12846;SDS011;6492;48.128;8.320;2024-03-17T08:26:41;4.57;;;1.70;;
12846;SDS011;6492;48.128;8.320;2024-03-17T08:30:50;3.00;;;2.03;;
12846;SDS011;6492;48.128;8.320;2024-03-17T08:34:54;6.43;;;3.13;;
12846;SDS011;6492;48.128;8.320;2024-03-17T08:38:55;3.83;;;1.87;;
12846;SDS011;6492;48.128;8.320;2024-03-17T08:42:58;3.67;;;1.63;;
12846;SDS011;6492;48.128;8.320;2024-03-17T08:47:00;4.57;;;1.60;;
12846;SDS011;6492;48.128;8.320;2024-03-17T08:51:04;2.57;;;1.40;;
12846;SDS011;6492;48.128;8.320;2024-03-17T08:55:09;4.07;;;1.57;;
12846;SDS011;6492;48.128;8.320;2024-03-17T08:59:14;4.30;;;1.40;;
12846;SDS011;6492;48.128;8.320;2024-03-17T09:03:16;2.77;;;1.50;;
12846;SDS011;6492;48.128;8.320;2024-03-17T09:07:19;2.30;;;1.50;;
12846;SDS011;6492;48.128;8.320;2024-03-17T09:11:27;4.37;;;1.03;;
12846;SDS011;6492;48.128;8.320;2024-03-17T09:15:31;3.20;;;1.50;;
12846;SDS011;6492;48.128;8.320;2024-03-17T09:19:33;3.30;;;1.50;;
12846;SDS011;6492;48.128;8.320;2024-03-17T09:23:36;2.73;;;1.20;;
12846;SDS011;6492;48.128;8.320;2024-03-17T09:27:41;4.40;;;1.60;;
12846;SDS011;6492;48.128;8.320;2024-03-17T09:31:43;1.90;;;1.10;;
12846;SDS011;6492;48.128;8.320;2024-03-17T09:35:52;3.13;;;1.40;;
12846;SDS011;6492;48.128;8.320;2024-03-17T09:39:55;3.83;;;1.40;;
12846;SDS011;6492;48.128;8.320;2024-03-17T09:43:58;3.60;;;1.50;;
12846;SDS011;6492;48.128;8.320;2024-03-17T09:48:00;5.07;;;1.50;;
12846;SDS011;6492;48.128;8.320;2024-03-17T09:52:02;3.40;;;1.40;;
12846;SDS011;6492;48.128;8.320;2024-03-17T09:56:08;3.97;;;1.47;;
12846;SDS011;6492;48.128;8.320;2024-03-17T10:00:25;3.80;;;1.50;;
12846;SDS011;6492;48.128;8.320;2024-03-17T10:04:31;5.67;;;1.50;;
12846;SDS011;6492;48.128;8.320;2024-03-17T10:08:34;3.00;;;1.10;;
12846;SDS011;6492;48.128;8.320;2024-03-17T10:12:42;3.10;;;1.30;;
12846;SDS011;6492;48.128;8.320;2024-03-17T10:16:44;3.63;;;1.20;;
12846;SDS011;6492;48.128;8.320;2024-03-17T10:20:46;4.70;;;1.70;;
12846;SDS011;6492;48.128;8.320;2024-03-17T10:24:58;4.03;;;1.47;;
12846;SDS011;6492;48.128;8.320;2024-03-17T10:29:02;4.13;;;1.67;;
12846;SDS011;6492;48.128;8.320;2024-03-17T10:33:04;3.53;;;1.57;;
12846;SDS011;6492;48.128;8.320;2024-03-17T10:37:09;4.80;;;1.37;;
12846;SDS011;6492;48.128;8.320;2024-03-17T10:41:12;1.50;;;1.07;;
12846;SDS011;6492;48.128;8.320;2024-03-17T10:45:15;4.87;;;1.30;;
12846;SDS011;6492;48.128;8.320;2024-03-17T10:49:17;2.60;;;1.43;;
12846;SDS011;6492;48.128;8.320;2024-03-17T10:53:19;5.30;;;1.50;;
12846;SDS011;6492;48.128;8.320;2024-03-17T10:57:27;4.27;;;1.70;;
12846;SDS011;6492;48.128;8.320;2024-03-17T11:01:34;3.47;;;1.20;;
12846;SDS011;6492;48.128;8.320;2024-03-17T11:05:37;5.57;;;1.43;;
12846;SDS011;6492;48.128;8.320;2024-03-17T11:09:39;5.53;;;2.10;;
12846;SDS011;6492;48.128;8.320;2024-03-17T11:13:41;1.77;;;1.20;;
12846;SDS011;6492;48.128;8.320;2024-03-17T11:17:45;5.60;;;1.27;;
12846;SDS011;6492;48.128;8.320;2024-03-17T11:21:46;2.00;;;1.10;;
12846;SDS011;6492;48.128;8.320;2024-03-17T11:25:50;3.63;;;1.13;;
12846;SDS011;6492;48.128;8.320;2024-03-17T11:29:53;3.10;;;1.30;;
12846;SDS011;6492;48.128;8.320;2024-03-17T11:33:56;2.60;;;1.47;;
12846;SDS011;6492;48.128;8.320;2024-03-17T11:38:00;2.47;;;1.37;;
12846;SDS011;6492;48.128;8.320;2024-03-17T11:42:04;2.53;;;1.30;;
12846;SDS011;6492;48.128;8.320;2024-03-17T11:46:14;2.97;;;1.30;;
12846;SDS011;6492;48.128;8.320;2024-03-17T11:50:18;4.23;;;1.20;;
12846;SDS011;6492;48.128;8.320;2024-03-17T11:54:28;4.93;;;1.50;;
12846;SDS011;6492;48.128;8.320;2024-03-17T11:58:37;3.87;;;1.93;;
12846;SDS011;6492;48.128;8.320;2024-03-17T12:02:42;3.63;;;1.60;;
12846;SDS011;6492;48.128;8.320;2024-03-17T12:06:50;3.60;;;1.17;;
12846;SDS011;6492;48.128;8.320;2024-03-17T12:10:56;2.73;;;1.30;;
12846;SDS011;6492;48.128;8.320;2024-03-17T12:15:00;5.53;;;1.50;;
12846;SDS011;6492;48.128;8.320;2024-03-17T12:19:06;3.70;;;1.60;;
12846;SDS011;6492;48.128;8.320;2024-03-17T12:23:11;2.73;;;1.70;;
12846;SDS011;6492;48.128;8.320;2024-03-17T12:27:20;3.60;;;1.37;;
12846;SDS011;6492;48.128;8.320;2024-03-17T12:31:23;2.00;;;1.27;;
12846;SDS011;6492;48.128;8.320;2024-03-17T12:35:29;3.80;;;1.37;;
12846;SDS011;6492;48.128;8.320;2024-03-17T12:39:33;2.60;;;1.23;;
12846;SDS011;6492;48.128;8.320;2024-03-17T12:43:47;3.63;;;1.33;;
12846;SDS011;6492;48.128;8.320;2024-03-17T12:47:49;4.43;;;1.63;;
12846;SDS011;6492;48.128;8.320;2024-03-17T12:51:52;2.30;;;1.07;;
12846;SDS011;6492;48.128;8.320;2024-03-17T12:55:56;1.73;;;1.10;;
12846;SDS011;6492;48.128;8.320;2024-03-17T13:00:23;2.13;;;1.30;;
12846;SDS011;6492;48.128;8.320;2024-03-17T13:04:34;5.43;;;1.30;;
12846;SDS011;6492;48.128;8.320;2024-03-17T13:08:37;2.17;;;1.20;;
12846;SDS011;6492;48.128;8.320;2024-03-17T13:12:41;1.97;;;1.20;;
12846;SDS011;6492;48.128;8.320;2024-03-17T13:16:44;4.60;;;2.10;;
12846;SDS011;6492;48.128;8.320;2024-03-17T13:20:46;3.00;;;1.70;;
12846;SDS011;6492;48.128;8.320;2024-03-17T13:24:49;4.70;;;2.07;;
12846;SDS011;6492;48.128;8.320;2024-03-17T13:28:53;3.43;;;1.40;;
12846;SDS011;6492;48.128;8.320;2024-03-17T13:32:54;2.30;;;1.70;;
12846;SDS011;6492;48.128;8.320;2024-03-17T13:36:58;2.07;;;1.00;;
12846;SDS011;6492;48.128;8.320;2024-03-17T13:41:00;1.33;;;0.90;;
12846;SDS011;6492;48.128;8.320;2024-03-17T13:45:07;2.47;;;1.40;;
12846;SDS011;6492;48.128;8.320;2024-03-17T13:49:12;2.83;;;1.33;;
12846;SDS011;6492;48.128;8.320;2024-03-17T13:53:14;4.20;;;1.43;;
12846;SDS011;6492;48.128;8.320;2024-03-17T13:57:16;1.17;;;0.90;;
12846;SDS011;6492;48.128;8.320;2024-03-17T14:01:19;3.23;;;1.23;;
12846;SDS011;6492;48.128;8.320;2024-03-17T14:05:21;2.73;;;1.07;;
12846;SDS011;6492;48.128;8.320;2024-03-17T14:09:24;2.73;;;1.23;;
12846;SDS011;6492;48.128;8.320;2024-03-17T14:13:31;1.63;;;1.00;;
12846;SDS011;6492;48.128;8.320;2024-03-17T14:17:35;3.37;;;1.10;;
12846;SDS011;6492;48.128;8.320;2024-03-17T14:21:37;2.63;;;1.03;;
12846;SDS011;6492;48.128;8.320;2024-03-17T14:25:40;1.93;;;0.93;;
12846;SDS011;6492;48.128;8.320;2024-03-17T14:29:42;1.83;;;1.00;;
12846;SDS011;6492;48.128;8.320;2024-03-17T14:33:46;4.10;;;1.30;;
12846;SDS011;6492;48.128;8.320;2024-03-17T14:37:50;2.33;;;1.33;;
12846;SDS011;6492;48.128;8.320;2024-03-17T14:41:54;1.17;;;1.07;;
12846;SDS011;6492;48.128;8.320;2024-03-17T14:45:56;2.43;;;0.97;;
12846;SDS011;6492;48.128;8.320;2024-03-17T14:49:59;2.80;;;1.30;;
12846;SDS011;6492;48.128;8.320;2024-03-17T14:54:01;2.10;;;1.20;;
12846;SDS011;6492;48.128;8.320;2024-03-17T14:58:05;1.47;;;0.87;;
12846;SDS011;6492;48.128;8.320;2024-03-17T15:02:07;5.63;;;2.60;;
12846;SDS011;6492;48.128;8.320;2024-03-17T15:06:12;2.57;;;1.80;;
12846;SDS011;6492;48.128;8.320;2024-03-17T15:10:14;1.20;;;1.10;;
12846;SDS011;6492;48.128;8.320;2024-03-17T15:14:20;2.67;;;1.10;;
12846;SDS011;6492;48.128;8.320;2024-03-17T15:18:22;0.90;;;0.63;;
12846;SDS011;6492;48.128;8.320;2024-03-17T15:22:25;2.10;;;1.20;;
12846;SDS011;6492;48.128;8.320;2024-03-17T15:26:27;4.10;;;1.87;;
12846;SDS011;6492;48.128;8.320;2024-03-17T15:30:29;1.63;;;0.90;;
12846;SDS011;6492;48.128;8.320;2024-03-17T15:34:32;1.23;;;0.77;;
12846;SDS011;6492;48.128;8.320;2024-03-17T15:38:38;1.47;;;1.10;;
12846;SDS011;6492;48.128;8.320;2024-03-17T15:42:40;2.00;;;1.10;;
12846;SDS011;6492;48.128;8.320;2024-03-17T15:46:42;1.33;;;0.93;;
12846;SDS011;6492;48.128;8.320;2024-03-17T15:50:43;1.40;;;0.97;;
12846;SDS011;6492;48.128;8.320;2024-03-17T15:54:46;1.43;;;1.07;;
12846;SDS011;6492;48.128;8.320;2024-03-17T15:58:49;1.90;;;0.90;;
12846;SDS011;6492;48.128;8.320;2024-03-17T16:02:57;1.60;;;0.60;;
12846;SDS011;6492;48.128;8.320;2024-03-17T16:07:00;2.60;;;1.27;;
12846;SDS011;6492;48.128;8.320;2024-03-17T16:11:04;1.70;;;1.10;;
12846;SDS011;6492;48.128;8.320;2024-03-17T16:15:07;3.47;;;2.17;;
12846;SDS011;6492;48.128;8.320;2024-03-17T16:19:10;1.63;;;1.20;;
12846;SDS011;6492;48.128;8.320;2024-03-17T16:23:12;2.63;;;1.03;;
12846;SDS011;6492;48.128;8.320;2024-03-17T16:27:15;2.03;;;1.07;;
12846;SDS011;6492;48.128;8.320;2024-03-17T16:31:18;2.93;;;1.90;;
12846;SDS011;6492;48.128;8.320;2024-03-17T16:35:21;6.73;;;4.33;;
12846;SDS011;6492;48.128;8.320;2024-03-17T16:39:23;2.60;;;1.77;;
12846;SDS011;6492;48.128;8.320;2024-03-17T16:43:32;3.37;;;2.00;;
12846;SDS011;6492;48.128;8.320;2024-03-17T16:47:43;2.70;;;2.07;;
12846;SDS011;6492;48.128;8.320;2024-03-17T16:51:44;3.70;;;1.90;;
12846;SDS011;6492;48.128;8.320;2024-03-17T16:55:46;2.20;;;1.83;;
12846;SDS011;6492;48.128;8.320;2024-03-17T16:59:50;2.20;;;1.60;;
12846;SDS011;6492;48.128;8.320;2024-03-17T17:03:53;4.83;;;2.00;;
12846;SDS011;6492;48.128;8.320;2024-03-17T17:07:56;4.53;;;2.20;;
12846;SDS011;6492;48.128;8.320;2024-03-17T17:11:59;2.23;;;1.60;;
12846;SDS011;6492;48.128;8.320;2024-03-17T17:16:02;2.27;;;1.53;;
12846;SDS011;6492;48.128;8.320;2024-03-17T17:20:05;2.23;;;1.27;;
12846;SDS011;6492;48.128;8.320;2024-03-17T17:24:08;2.33;;;1.23;;
12846;SDS011;6492;48.128;8.320;2024-03-17T17:28:19;2.80;;;1.37;;
12846;SDS011;6492;48.128;8.320;2024-03-17T17:32:22;2.37;;;1.10;;
12846;SDS011;6492;48.128;8.320;2024-03-17T17:36:24;3.73;;;1.10;;
12846;SDS011;6492;48.128;8.320;2024-03-17T17:40:26;2.40;;;0.90;;
12846;SDS011;6492;48.128;8.320;2024-03-17T17:44:29;0.93;;;0.80;;
12846;SDS011;6492;48.128;8.320;2024-03-17T17:48:33;2.03;;;1.10;;
12846;SDS011;6492;48.128;8.320;2024-03-17T17:52:35;1.50;;;0.97;;
12846;SDS011;6492;48.128;8.320;2024-03-17T17:56:37;0.80;;;0.70;;
12846;SDS011;6492;48.128;8.320;2024-03-17T18:00:39;2.30;;;1.43;;
12846;SDS011;6492;48.128;8.320;2024-03-17T18:04:42;1.87;;;1.20;;
12846;SDS011;6492;48.128;8.320;2024-03-17T18:08:44;1.73;;;1.20;;
12846;SDS011;6492;48.128;8.320;2024-03-17T18:12:46;1.43;;;0.80;;
12846;SDS011;6492;48.128;8.320;2024-03-17T18:16:48;2.00;;;1.07;;
12846;SDS011;6492;48.128;8.320;2024-03-17T18:20:53;1.97;;;1.20;;
12846;SDS011;6492;48.128;8.320;2024-03-17T18:24:56;1.40;;;1.00;;
12846;SDS011;6492;48.128;8.320;2024-03-17T18:28:58;2.40;;;1.70;;
12846;SDS011;6492;48.128;8.320;2024-03-17T18:33:01;2.27;;;1.43;;
12846;SDS011;6492;48.128;8.320;2024-03-17T18:37:05;1.60;;;1.10;;
12846;SDS011;6492;48.128;8.320;2024-03-17T18:41:08;2.03;;;1.00;;
12846;SDS011;6492;48.128;8.320;2024-03-17T18:45:13;2.43;;;1.17;;
12846;SDS011;6492;48.128;8.320;2024-03-17T18:49:15;1.47;;;0.87;;
12846;SDS011;6492;48.128;8.320;2024-03-17T18:53:18;1.10;;;0.90;;
12846;SDS011;6492;48.128;8.320;2024-03-17T18:57:22;1.00;;;0.90;;
12846;SDS011;6492;48.128;8.320;2024-03-17T19:01:26;1.83;;;1.10;;
12846;SDS011;6492;48.128;8.320;2024-03-17T19:05:28;1.40;;;1.23;;
12846;SDS011;6492;48.128;8.320;2024-03-17T19:13:42;5.53;;;2.43;;
12846;SDS011;6492;48.128;8.320;2024-03-17T19:17:43;2.53;;;2.20;;
12846;SDS011;6492;48.128;8.320;2024-03-17T19:21:46;5.27;;;4.00;;
12846;SDS011;6492;48.128;8.320;2024-03-17T19:25:59;6.77;;;4.43;;
12846;SDS011;6492;48.128;8.320;2024-03-17T19:30:02;5.10;;;3.60;;
12846;SDS011;6492;48.128;8.320;2024-03-17T19:34:04;6.23;;;3.80;;
12846;SDS011;6492;48.128;8.320;2024-03-17T19:38:09;6.30;;;4.23;;
12846;SDS011;6492;48.128;8.320;2024-03-17T19:42:13;5.50;;;3.67;;
12846;SDS011;6492;48.128;8.320;2024-03-17T19:46:16;5.83;;;3.63;;
12846;SDS011;6492;48.128;8.320;2024-03-17T19:50:20;3.40;;;2.30;;
12846;SDS011;6492;48.128;8.320;2024-03-17T19:54:28;2.13;;;1.73;;
12846;SDS011;6492;48.128;8.320;2024-03-17T19:58:31;2.93;;;1.70;;
12846;SDS011;6492;48.128;8.320;2024-03-17T20:02:33;3.07;;;2.77;;
12846;SDS011;6492;48.128;8.320;2024-03-17T20:06:35;3.67;;;1.87;;
12846;SDS011;6492;48.128;8.320;2024-03-17T20:10:37;3.43;;;1.70;;
12846;SDS011;6492;48.128;8.320;2024-03-17T20:14:40;2.27;;;1.60;;
12846;SDS011;6492;48.128;8.320;2024-03-17T20:18:42;2.80;;;1.80;;
12846;SDS011;6492;48.128;8.320;2024-03-17T20:22:43;1.60;;;1.50;;
12846;SDS011;6492;48.128;8.320;2024-03-17T20:26:46;1.30;;;1.20;;
12846;SDS011;6492;48.128;8.320;2024-03-17T20:30:49;2.17;;;1.70;;
12846;SDS011;6492;48.128;8.320;2024-03-17T20:34:51;1.30;;;1.20;;
12846;SDS011;6492;48.128;8.320;2024-03-17T20:38:53;1.40;;;1.30;;
12846;SDS011;6492;48.128;8.320;2024-03-17T20:42:55;1.97;;;1.10;;
12846;SDS011;6492;48.128;8.320;2024-03-17T20:47:01;1.17;;;1.00;;
12846;SDS011;6492;48.128;8.320;2024-03-17T20:51:04;4.03;;;1.20;;
12846;SDS011;6492;48.128;8.320;2024-03-17T20:55:07;3.97;;;1.57;;
12846;SDS011;6492;48.128;8.320;2024-03-17T20:59:10;1.90;;;1.40;;
12846;SDS011;6492;48.128;8.320;2024-03-17T21:03:13;2.00;;;1.37;;
12846;SDS011;6492;48.128;8.320;2024-03-17T21:07:15;2.83;;;1.47;;
12846;SDS011;6492;48.128;8.320;2024-03-17T21:11:19;1.93;;;1.20;;
12846;SDS011;6492;48.128;8.320;2024-03-17T21:15:21;1.60;;;1.20;;
12846;SDS011;6492;48.128;8.320;2024-03-17T21:19:25;2.03;;;1.00;;
12846;SDS011;6492;48.128;8.320;2024-03-17T21:23:27;1.17;;;0.90;;
12846;SDS011;6492;48.128;8.320;2024-03-17T21:27:29;1.47;;;1.30;;
12846;SDS011;6492;48.128;8.320;2024-03-17T21:31:31;1.63;;;1.07;;
12846;SDS011;6492;48.128;8.320;2024-03-17T21:35:36;1.63;;;1.20;;
12846;SDS011;6492;48.128;8.320;2024-03-17T21:39:39;1.83;;;1.40;;
12846;SDS011;6492;48.128;8.320;2024-03-17T21:43:41;2.00;;;1.00;;
12846;SDS011;6492;48.128;8.320;2024-03-17T21:47:45;1.07;;;0.80;;
12846;SDS011;6492;48.128;8.320;2024-03-17T21:51:48;2.97;;;1.13;;
12846;SDS011;6492;48.128;8.320;2024-03-17T21:55:54;3.20;;;1.10;;
12846;SDS011;6492;48.128;8.320;2024-03-17T21:59:56;1.67;;;1.07;;
12846;SDS011;6492;48.128;8.320;2024-03-17T22:03:58;2.00;;;1.00;;
12846;SDS011;6492;48.128;8.320;2024-03-17T22:08:01;2.63;;;1.30;;
12846;SDS011;6492;48.128;8.320;2024-03-17T22:12:03;3.00;;;1.20;;
12846;SDS011;6492;48.128;8.320;2024-03-17T22:16:05;1.97;;;1.27;;
12846;SDS011;6492;48.128;8.320;2024-03-17T22:20:09;1.70;;;1.27;;
12846;SDS011;6492;48.128;8.320;2024-03-17T22:24:12;2.80;;;1.20;;
12846;SDS011;6492;48.128;8.320;2024-03-17T22:28:14;3.60;;;1.10;;
12846;SDS011;6492;48.128;8.320;2024-03-17T22:32:16;1.83;;;1.10;;
12846;SDS011;6492;48.128;8.320;2024-03-17T22:36:18;1.53;;;1.40;;
12846;SDS011;6492;48.128;8.320;2024-03-17T22:40:21;2.57;;;1.00;;
12846;SDS011;6492;48.128;8.320;2024-03-17T22:44:23;1.43;;;0.97;;
12846;SDS011;6492;48.128;8.320;2024-03-17T22:48:25;0.77;;;0.70;;
12846;SDS011;6492;48.128;8.320;2024-03-17T22:52:30;1.47;;;0.90;;
12846;SDS011;6492;48.128;8.320;2024-03-17T22:56:33;2.33;;;1.10;;
12846;SDS011;6492;48.128;8.320;2024-03-17T23:00:38;1.53;;;0.90;;
12846;SDS011;6492;48.128;8.320;2024-03-17T23:04:42;1.70;;;0.90;;
12846;SDS011;6492;48.128;8.320;2024-03-17T23:08:44;2.20;;;0.87;;
12846;SDS011;6492;48.128;8.320;2024-03-17T23:12:47;1.20;;;1.10;;
12846;SDS011;6492;48.128;8.320;2024-03-17T23:16:49;2.33;;;1.20;;
12846;SDS011;6492;48.128;8.320;2024-03-17T23:20:51;1.53;;;1.10;;
12846;SDS011;6492;48.128;8.320;2024-03-17T23:24:53;1.97;;;1.77;;
12846;SDS011;6492;48.128;8.320;2024-03-17T23:28:56;2.93;;;1.60;;
12846;SDS011;6492;48.128;8.320;2024-03-17T23:32:58;2.47;;;1.53;;
12846;SDS011;6492;48.128;8.320;2024-03-17T23:37:00;2.00;;;1.50;;
12846;SDS011;6492;48.128;8.320;2024-03-17T23:41:02;1.80;;;1.10;;
12846;SDS011;6492;48.128;8.320;2024-03-17T23:45:06;1.03;;;0.97;;
12846;SDS011;6492;48.128;8.320;2024-03-17T23:49:09;2.93;;;1.13;;
12846;SDS011;6492;48.128;8.320;2024-03-17T23:53:11;1.33;;;1.10;;
12846;SDS011;6492;48.128;8.320;2024-03-17T23:57:13;2.33;;;1.30;;
